sensor_id;sensor_type;location;lat;lon;timestamp;P1;P2;P0
73241;PMS5003;65659;49.234;-2.094;2023-04-06T00:01:33;10;9;
73241;PMS5003;65659;49.234;-2.094;2023-04-06T00:03:57;11;10;
73241;PMS5003;65659;49.234;-2.094;2023-04-06T00:06:22;10;10;
73241;PMS5003;65659;49.234;-2.094;2023-04-06T00:08:48;10;9;
73241;PMS5003;65659;49.234;-2.094;2023-04-06T00:11:13;14;13;
73241;PMS5003;65659;49.234;-2.094;2023-04-06T00:13:38;15;15;
73241;PMS5003;65659;49.234;-2.094;2023-04-06T00:16:05;13;12;
73241;PMS5003;65659;49.234;-2.094;2023-04-06T00:18:29;10;9;
73241;PMS5003;65659;49.234;-2.094;2023-04-06T00:20:55;12;12;
73241;PMS5003;65659;49.234;-2.094;2023-04-06T00:23:20;14;14;
73241;PMS5003;65659;49.234;-2.094;2023-04-06T00:25:46;12;12;
73241;PMS5003;65659;49.234;-2.094;2023-04-06T00:28:11;10;10;
73241;PMS5003;65659;49.234;-2.094;2023-04-06T00:30:37;13;13;
73241;PMS5003;65659;49.234;-2.094;2023-04-06T00:33:02;9;9;
73241;PMS5003;65659;49.234;-2.094;2023-04-06T00:35:28;11;11;
73241;PMS5003;65659;49.234;-2.094;2023-04-06T00:37:53;9;9;
73241;PMS5003;65659;49.234;-2.094;2023-04-06T00:40:18;10;10;
73241;PMS5003;65659;49.234;-2.094;2023-04-06T00:42:43;13;13;
73241;PMS5003;65659;49.234;-2.094;2023-04-06T00:45:09;11;11;
73241;PMS5003;65659;49.234;-2.094;2023-04-06T00:47:33;13;12;
73241;PMS5003;65659;49.234;-2.094;2023-04-06T00:49:59;14;13;
73241;PMS5003;65659;49.234;-2.094;2023-04-06T00:52:24;16;15;
73241;PMS5003;65659;49.234;-2.094;2023-04-06T00:54:50;12;10;
73241;PMS5003;65659;49.234;-2.094;2023-04-06T00:57:15;17;16;
73241;PMS5003;65659;49.234;-2.094;2023-04-06T00:59:40;14;14;
73241;PMS5003;65659;49.234;-2.094;2023-04-06T01:02:06;12;12;
73241;PMS5003;65659;49.234;-2.094;2023-04-06T01:04:32;13;12;
73241;PMS5003;65659;49.234;-2.094;2023-04-06T01:06:57;12;12;
73241;PMS5003;65659;49.234;-2.094;2023-04-06T01:09:23;12;12;
73241;PMS5003;65659;49.234;-2.094;2023-04-06T01:11:48;15;15;
73241;PMS5003;65659;49.234;-2.094;2023-04-06T01:14:13;12;12;
73241;PMS5003;65659;49.234;-2.094;2023-04-06T01:16:38;11;11;
73241;PMS5003;65659;49.234;-2.094;2023-04-06T01:19:06;14;13;
73241;PMS5003;65659;49.234;-2.094;2023-04-06T01:21:29;16;16;
73241;PMS5003;65659;49.234;-2.094;2023-04-06T01:23:54;13;13;
73241;PMS5003;65659;49.234;-2.094;2023-04-06T01:26:20;16;15;
73241;PMS5003;65659;49.234;-2.094;2023-04-06T01:28:45;15;15;
73241;PMS5003;65659;49.234;-2.094;2023-04-06T01:31:10;13;13;
73241;PMS5003;65659;49.234;-2.094;2023-04-06T01:33:35;15;14;
73241;PMS5003;65659;49.234;-2.094;2023-04-06T01:36:01;17;17;
73241;PMS5003;65659;49.234;-2.094;2023-04-06T01:38:27;19;18;
73241;PMS5003;65659;49.234;-2.094;2023-04-06T01:40:52;18;17;
73241;PMS5003;65659;49.234;-2.094;2023-04-06T01:43:17;19;18;
73241;PMS5003;65659;49.234;-2.094;2023-04-06T01:45:43;20;20;
73241;PMS5003;65659;49.234;-2.094;2023-04-06T01:48:08;16;16;
73241;PMS5003;65659;49.234;-2.094;2023-04-06T01:50:34;22;21;
73241;PMS5003;65659;49.234;-2.094;2023-04-06T01:52:59;17;15;
73241;PMS5003;65659;49.234;-2.094;2023-04-06T01:55:25;14;14;
73241;PMS5003;65659;49.234;-2.094;2023-04-06T01:57:50;20;20;
73241;PMS5003;65659;49.234;-2.094;2023-04-06T02:00:16;14;14;
73241;PMS5003;65659;49.234;-2.094;2023-04-06T02:02:41;15;14;
73241;PMS5003;65659;49.234;-2.094;2023-04-06T02:05:07;17;17;
73241;PMS5003;65659;49.234;-2.094;2023-04-06T02:07:32;19;17;
73241;PMS5003;65659;49.234;-2.094;2023-04-06T02:09:57;17;16;
73241;PMS5003;65659;49.234;-2.094;2023-04-06T02:12:23;17;17;
73241;PMS5003;65659;49.234;-2.094;2023-04-06T02:14:48;20;19;
73241;PMS5003;65659;49.234;-2.094;2023-04-06T02:17:13;13;13;
73241;PMS5003;65659;49.234;-2.094;2023-04-06T02:19:38;17;16;
73241;PMS5003;65659;49.234;-2.094;2023-04-06T02:22:03;17;17;
73241;PMS5003;65659;49.234;-2.094;2023-04-06T02:24:29;15;14;
73241;PMS5003;65659;49.234;-2.094;2023-04-06T02:26:55;16;16;
73241;PMS5003;65659;49.234;-2.094;2023-04-06T02:29:20;14;14;
73241;PMS5003;65659;49.234;-2.094;2023-04-06T02:31:46;13;13;
73241;PMS5003;65659;49.234;-2.094;2023-04-06T02:34:11;16;16;
73241;PMS5003;65659;49.234;-2.094;2023-04-06T02:36:36;14;14;
73241;PMS5003;65659;49.234;-2.094;2023-04-06T02:39:02;17;16;
73241;PMS5003;65659;49.234;-2.094;2023-04-06T02:41:27;16;15;
73241;PMS5003;65659;49.234;-2.094;2023-04-06T02:43:53;15;14;
73241;PMS5003;65659;49.234;-2.094;2023-04-06T02:46:18;19;18;
73241;PMS5003;65659;49.234;-2.094;2023-04-06T02:48:43;15;14;
73241;PMS5003;65659;49.234;-2.094;2023-04-06T02:51:09;15;15;
73241;PMS5003;65659;49.234;-2.094;2023-04-06T02:53:34;16;14;
73241;PMS5003;65659;49.234;-2.094;2023-04-06T02:56:00;17;16;
73241;PMS5003;65659;49.234;-2.094;2023-04-06T02:58:26;21;21;
73241;PMS5003;65659;49.234;-2.094;2023-04-06T03:00:51;22;22;
73241;PMS5003;65659;49.234;-2.094;2023-04-06T03:03:17;16;14;
73241;PMS5003;65659;49.234;-2.094;2023-04-06T03:05:42;21;21;
73241;PMS5003;65659;49.234;-2.094;2023-04-06T03:08:08;14;14;
73241;PMS5003;65659;49.234;-2.094;2023-04-06T03:10:33;19;18;
73241;PMS5003;65659;49.234;-2.094;2023-04-06T03:12:58;20;19;
73241;PMS5003;65659;49.234;-2.094;2023-04-06T03:15:24;18;17;
73241;PMS5003;65659;49.234;-2.094;2023-04-06T03:17:50;16;16;
73241;PMS5003;65659;49.234;-2.094;2023-04-06T03:20:15;18;18;
73241;PMS5003;65659;49.234;-2.094;2023-04-06T03:22:41;23;20;
73241;PMS5003;65659;49.234;-2.094;2023-04-06T03:25:06;20;19;
73241;PMS5003;65659;49.234;-2.094;2023-04-06T03:27:32;18;17;
73241;PMS5003;65659;49.234;-2.094;2023-04-06T03:29:57;18;17;
73241;PMS5003;65659;49.234;-2.094;2023-04-06T03:32:23;20;17;
73241;PMS5003;65659;49.234;-2.094;2023-04-06T03:34:48;17;17;
73241;PMS5003;65659;49.234;-2.094;2023-04-06T03:37:13;19;19;
73241;PMS5003;65659;49.234;-2.094;2023-04-06T03:39:38;19;17;
73241;PMS5003;65659;49.234;-2.094;2023-04-06T03:42:04;22;19;
73241;PMS5003;65659;49.234;-2.094;2023-04-06T03:44:29;18;18;
73241;PMS5003;65659;49.234;-2.094;2023-04-06T03:46:54;15;15;
73241;PMS5003;65659;49.234;-2.094;2023-04-06T03:49:19;15;14;
73241;PMS5003;65659;49.234;-2.094;2023-04-06T03:51:45;17;16;
73241;PMS5003;65659;49.234;-2.094;2023-04-06T03:54:11;16;16;
73241;PMS5003;65659;49.234;-2.094;2023-04-06T03:56:36;12;12;
73241;PMS5003;65659;49.234;-2.094;2023-04-06T03:59:01;16;16;
73241;PMS5003;65659;49.234;-2.094;2023-04-06T04:01:26;12;12;
73241;PMS5003;65659;49.234;-2.094;2023-04-06T04:03:52;14;14;
73241;PMS5003;65659;49.234;-2.094;2023-04-06T04:06:17;13;12;
73241;PMS5003;65659;49.234;-2.094;2023-04-06T04:08:42;14;12;
73241;PMS5003;65659;49.234;-2.094;2023-04-06T04:11:08;12;12;
73241;PMS5003;65659;49.234;-2.094;2023-04-06T04:13:33;15;14;
73241;PMS5003;65659;49.234;-2.094;2023-04-06T04:15:59;16;16;
73241;PMS5003;65659;49.234;-2.094;2023-04-06T04:18:24;11;11;
73241;PMS5003;65659;49.234;-2.094;2023-04-06T04:20:50;14;14;
73241;PMS5003;65659;49.234;-2.094;2023-04-06T04:23:15;15;15;
73241;PMS5003;65659;49.234;-2.094;2023-04-06T04:25:40;11;11;
73241;PMS5003;65659;49.234;-2.094;2023-04-06T04:28:05;12;12;
73241;PMS5003;65659;49.234;-2.094;2023-04-06T04:30:30;13;12;
73241;PMS5003;65659;49.234;-2.094;2023-04-06T04:32:56;16;15;
73241;PMS5003;65659;49.234;-2.094;2023-04-06T04:35:21;12;11;
73241;PMS5003;65659;49.234;-2.094;2023-04-06T04:37:47;13;13;
73241;PMS5003;65659;49.234;-2.094;2023-04-06T04:40:12;15;15;
73241;PMS5003;65659;49.234;-2.094;2023-04-06T04:42:37;12;12;
73241;PMS5003;65659;49.234;-2.094;2023-04-06T04:45:03;13;13;
73241;PMS5003;65659;49.234;-2.094;2023-04-06T04:47:28;7;7;
73241;PMS5003;65659;49.234;-2.094;2023-04-06T04:49:54;11;10;
73241;PMS5003;65659;49.234;-2.094;2023-04-06T04:52:19;12;11;
73241;PMS5003;65659;49.234;-2.094;2023-04-06T04:54:44;10;10;
73241;PMS5003;65659;49.234;-2.094;2023-04-06T04:57:09;11;8;
73241;PMS5003;65659;49.234;-2.094;2023-04-06T04:59:35;10;9;
73241;PMS5003;65659;49.234;-2.094;2023-04-06T05:02:01;8;7;
73241;PMS5003;65659;49.234;-2.094;2023-04-06T05:04:26;9;9;
73241;PMS5003;65659;49.234;-2.094;2023-04-06T05:09:17;11;9;
73241;PMS5003;65659;49.234;-2.094;2023-04-06T05:11:43;10;9;
73241;PMS5003;65659;49.234;-2.094;2023-04-06T05:14:08;7;7;
73241;PMS5003;65659;49.234;-2.094;2023-04-06T05:16:33;10;9;
73241;PMS5003;65659;49.234;-2.094;2023-04-06T05:18:59;7;7;
73241;PMS5003;65659;49.234;-2.094;2023-04-06T05:21:23;9;8;
73241;PMS5003;65659;49.234;-2.094;2023-04-06T05:23:49;8;8;
73241;PMS5003;65659;49.234;-2.094;2023-04-06T05:26:14;7;7;
73241;PMS5003;65659;49.234;-2.094;2023-04-06T05:28:39;7;7;
73241;PMS5003;65659;49.234;-2.094;2023-04-06T05:31:04;7;7;
73241;PMS5003;65659;49.234;-2.094;2023-04-06T05:33:29;7;7;
73241;PMS5003;65659;49.234;-2.094;2023-04-06T05:35:55;4;4;
73241;PMS5003;65659;49.234;-2.094;2023-04-06T05:38:20;8;7;
73241;PMS5003;65659;49.234;-2.094;2023-04-06T05:40:45;6;5;
73241;PMS5003;65659;49.234;-2.094;2023-04-06T05:43:10;8;7;
73241;PMS5003;65659;49.234;-2.094;2023-04-06T05:45:35;5;5;
73241;PMS5003;65659;49.234;-2.094;2023-04-06T05:48:01;4;4;
73241;PMS5003;65659;49.234;-2.094;2023-04-06T05:50:26;7;6;
73241;PMS5003;65659;49.234;-2.094;2023-04-06T05:52:50;5;5;
73241;PMS5003;65659;49.234;-2.094;2023-04-06T05:55:15;3;3;
73241;PMS5003;65659;49.234;-2.094;2023-04-06T05:57:40;5;5;
73241;PMS5003;65659;49.234;-2.094;2023-04-06T06:00:06;5;3;
73241;PMS5003;65659;49.234;-2.094;2023-04-06T06:02:31;5;4;
73241;PMS5003;65659;49.234;-2.094;2023-04-06T06:04:56;4;3;
73241;PMS5003;65659;49.234;-2.094;2023-04-06T06:07:21;3;3;
73241;PMS5003;65659;49.234;-2.094;2023-04-06T06:09:47;4;3;
73241;PMS5003;65659;49.234;-2.094;2023-04-06T06:12:12;4;3;
73241;PMS5003;65659;49.234;-2.094;2023-04-06T06:14:38;3;3;
73241;PMS5003;65659;49.234;-2.094;2023-04-06T06:17:03;8;6;
73241;PMS5003;65659;49.234;-2.094;2023-04-06T06:19:28;5;5;
73241;PMS5003;65659;49.234;-2.094;2023-04-06T06:21:53;8;6;
73241;PMS5003;65659;49.234;-2.094;2023-04-06T06:24:19;4;4;
73241;PMS5003;65659;49.234;-2.094;2023-04-06T06:26:44;6;5;
73241;PMS5003;65659;49.234;-2.094;2023-04-06T06:29:09;7;7;
73241;PMS5003;65659;49.234;-2.094;2023-04-06T06:31:34;8;5;
73241;PMS5003;65659;49.234;-2.094;2023-04-06T06:33:59;7;6;
73241;PMS5003;65659;49.234;-2.094;2023-04-06T06:36:25;8;7;
73241;PMS5003;65659;49.234;-2.094;2023-04-06T06:38:50;7;5;
73241;PMS5003;65659;49.234;-2.094;2023-04-06T06:41:16;8;8;
73241;PMS5003;65659;49.234;-2.094;2023-04-06T06:43:41;6;6;
73241;PMS5003;65659;49.234;-2.094;2023-04-06T06:46:07;8;7;
73241;PMS5003;65659;49.234;-2.094;2023-04-06T06:48:32;7;5;
73241;PMS5003;65659;49.234;-2.094;2023-04-06T06:50:58;5;5;
73241;PMS5003;65659;49.234;-2.094;2023-04-06T06:53:24;4;4;
73241;PMS5003;65659;49.234;-2.094;2023-04-06T06:55:49;4;4;
73241;PMS5003;65659;49.234;-2.094;2023-04-06T06:58:14;6;5;
73241;PMS5003;65659;49.234;-2.094;2023-04-06T07:00:39;5;5;
73241;PMS5003;65659;49.234;-2.094;2023-04-06T07:03:05;6;6;
73241;PMS5003;65659;49.234;-2.094;2023-04-06T07:05:30;6;6;
73241;PMS5003;65659;49.234;-2.094;2023-04-06T07:07:55;5;4;
73241;PMS5003;65659;49.234;-2.094;2023-04-06T07:10:21;4;4;
73241;PMS5003;65659;49.234;-2.094;2023-04-06T07:12:47;7;4;
73241;PMS5003;65659;49.234;-2.094;2023-04-06T07:15:12;5;5;
73241;PMS5003;65659;49.234;-2.094;2023-04-06T07:17:37;14;11;
73241;PMS5003;65659;49.234;-2.094;2023-04-06T07:20:03;8;7;
73241;PMS5003;65659;49.234;-2.094;2023-04-06T07:22:28;9;9;
73241;PMS5003;65659;49.234;-2.094;2023-04-06T07:24:54;13;13;
73241;PMS5003;65659;49.234;-2.094;2023-04-06T07:27:19;15;14;
73241;PMS5003;65659;49.234;-2.094;2023-04-06T07:29:44;13;12;
73241;PMS5003;65659;49.234;-2.094;2023-04-06T07:32:10;11;10;
73241;PMS5003;65659;49.234;-2.094;2023-04-06T07:34:35;8;5;
73241;PMS5003;65659;49.234;-2.094;2023-04-06T07:37:00;11;10;
73241;PMS5003;65659;49.234;-2.094;2023-04-06T07:39:25;5;5;
73241;PMS5003;65659;49.234;-2.094;2023-04-06T07:41:51;5;5;
73241;PMS5003;65659;49.234;-2.094;2023-04-06T07:44:16;6;6;
73241;PMS5003;65659;49.234;-2.094;2023-04-06T07:46:41;5;5;
73241;PMS5003;65659;49.234;-2.094;2023-04-06T07:49:06;6;6;
73241;PMS5003;65659;49.234;-2.094;2023-04-06T07:51:31;9;8;
73241;PMS5003;65659;49.234;-2.094;2023-04-06T07:53:57;8;7;
73241;PMS5003;65659;49.234;-2.094;2023-04-06T07:56:22;5;5;
73241;PMS5003;65659;49.234;-2.094;2023-04-06T07:58:47;10;8;
73241;PMS5003;65659;49.234;-2.094;2023-04-06T08:01:12;11;10;
73241;PMS5003;65659;49.234;-2.094;2023-04-06T08:03:38;9;8;
73241;PMS5003;65659;49.234;-2.094;2023-04-06T08:06:03;8;8;
73241;PMS5003;65659;49.234;-2.094;2023-04-06T08:08:29;10;10;
73241;PMS5003;65659;49.234;-2.094;2023-04-06T08:10:54;12;11;
73241;PMS5003;65659;49.234;-2.094;2023-04-06T08:13:19;25;23;
73241;PMS5003;65659;49.234;-2.094;2023-04-06T08:15:45;10;10;
73241;PMS5003;65659;49.234;-2.094;2023-04-06T08:18:10;18;16;
73241;PMS5003;65659;49.234;-2.094;2023-04-06T08:20:36;8;7;
73241;PMS5003;65659;49.234;-2.094;2023-04-06T08:23:01;8;7;
73241;PMS5003;65659;49.234;-2.094;2023-04-06T08:25:26;8;7;
73241;PMS5003;65659;49.234;-2.094;2023-04-06T08:27:51;6;6;
73241;PMS5003;65659;49.234;-2.094;2023-04-06T08:30:16;8;8;
73241;PMS5003;65659;49.234;-2.094;2023-04-06T08:32:41;7;6;
73241;PMS5003;65659;49.234;-2.094;2023-04-06T08:35:07;9;7;
73241;PMS5003;65659;49.234;-2.094;2023-04-06T08:37:33;6;6;
73241;PMS5003;65659;49.234;-2.094;2023-04-06T08:39:57;5;4;
73241;PMS5003;65659;49.234;-2.094;2023-04-06T08:42:21;5;4;
73241;PMS5003;65659;49.234;-2.094;2023-04-06T08:44:47;5;4;
73241;PMS5003;65659;49.234;-2.094;2023-04-06T08:47:12;4;4;
73241;PMS5003;65659;49.234;-2.094;2023-04-06T08:49:37;7;5;
73241;PMS5003;65659;49.234;-2.094;2023-04-06T08:52:03;10;10;
73241;PMS5003;65659;49.234;-2.094;2023-04-06T08:54:28;10;10;
73241;PMS5003;65659;49.234;-2.094;2023-04-06T08:56:54;9;9;
73241;PMS5003;65659;49.234;-2.094;2023-04-06T08:59:19;5;5;
73241;PMS5003;65659;49.234;-2.094;2023-04-06T09:01:45;6;5;
73241;PMS5003;65659;49.234;-2.094;2023-04-06T09:04:10;7;6;
73241;PMS5003;65659;49.234;-2.094;2023-04-06T09:06:36;7;5;
73241;PMS5003;65659;49.234;-2.094;2023-04-06T09:09:01;7;5;
73241;PMS5003;65659;49.234;-2.094;2023-04-06T09:11:27;7;5;
73241;PMS5003;65659;49.234;-2.094;2023-04-06T09:13:53;5;3;
73241;PMS5003;65659;49.234;-2.094;2023-04-06T09:16:19;4;2;
73241;PMS5003;65659;49.234;-2.094;2023-04-06T09:18:44;7;7;
73241;PMS5003;65659;49.234;-2.094;2023-04-06T09:21:09;7;5;
73241;PMS5003;65659;49.234;-2.094;2023-04-06T09:23:35;6;5;
73241;PMS5003;65659;49.234;-2.094;2023-04-06T09:26:05;6;6;
73241;PMS5003;65659;49.234;-2.094;2023-04-06T09:28:26;5;4;
73241;PMS5003;65659;49.234;-2.094;2023-04-06T09:30:51;5;5;
73241;PMS5003;65659;49.234;-2.094;2023-04-06T09:33:22;8;6;
73241;PMS5003;65659;49.234;-2.094;2023-04-06T09:38:11;3;3;
73241;PMS5003;65659;49.234;-2.094;2023-04-06T09:40:34;7;6;
73241;PMS5003;65659;49.234;-2.094;2023-04-06T09:42:59;5;5;
73241;PMS5003;65659;49.234;-2.094;2023-04-06T09:45:25;8;8;
73241;PMS5003;65659;49.234;-2.094;2023-04-06T09:47:50;5;4;
73241;PMS5003;65659;49.234;-2.094;2023-04-06T09:50:15;4;3;
73241;PMS5003;65659;49.234;-2.094;2023-04-06T09:52:41;4;4;
73241;PMS5003;65659;49.234;-2.094;2023-04-06T09:55:07;6;5;
73241;PMS5003;65659;49.234;-2.094;2023-04-06T09:57:33;4;4;
73241;PMS5003;65659;49.234;-2.094;2023-04-06T09:59:58;7;4;
73241;PMS5003;65659;49.234;-2.094;2023-04-06T10:02:24;9;8;
73241;PMS5003;65659;49.234;-2.094;2023-04-06T10:04:49;5;5;
73241;PMS5003;65659;49.234;-2.094;2023-04-06T10:07:13;11;11;
73241;PMS5003;65659;49.234;-2.094;2023-04-06T10:09:39;7;5;
73241;PMS5003;65659;49.234;-2.094;2023-04-06T10:12:05;5;4;
73241;PMS5003;65659;49.234;-2.094;2023-04-06T10:14:31;7;5;
73241;PMS5003;65659;49.234;-2.094;2023-04-06T10:16:56;7;5;
73241;PMS5003;65659;49.234;-2.094;2023-04-06T10:19:22;7;7;
73241;PMS5003;65659;49.234;-2.094;2023-04-06T10:21:48;8;7;
73241;PMS5003;65659;49.234;-2.094;2023-04-06T10:24:13;8;6;
73241;PMS5003;65659;49.234;-2.094;2023-04-06T10:26:39;7;5;
73241;PMS5003;65659;49.234;-2.094;2023-04-06T10:29:04;9;7;
73241;PMS5003;65659;49.234;-2.094;2023-04-06T10:31:29;9;7;
73241;PMS5003;65659;49.234;-2.094;2023-04-06T10:33:55;6;5;
73241;PMS5003;65659;49.234;-2.094;2023-04-06T10:36:21;9;9;
73241;PMS5003;65659;49.234;-2.094;2023-04-06T10:38:47;6;5;
73241;PMS5003;65659;49.234;-2.094;2023-04-06T10:41:12;3;3;
73241;PMS5003;65659;49.234;-2.094;2023-04-06T10:43:37;3;2;
73241;PMS5003;65659;49.234;-2.094;2023-04-06T10:46:03;3;3;
73241;PMS5003;65659;49.234;-2.094;2023-04-06T10:50:54;10;9;
73241;PMS5003;65659;49.234;-2.094;2023-04-06T10:53:21;7;7;
73241;PMS5003;65659;49.234;-2.094;2023-04-06T10:55:45;4;4;
73241;PMS5003;65659;49.234;-2.094;2023-04-06T10:58:11;5;4;
73241;PMS5003;65659;49.234;-2.094;2023-04-06T11:00:35;6;6;
73241;PMS5003;65659;49.234;-2.094;2023-04-06T11:03:01;6;5;
73241;PMS5003;65659;49.234;-2.094;2023-04-06T11:05:26;4;3;
73241;PMS5003;65659;49.234;-2.094;2023-04-06T11:07:52;5;4;
73241;PMS5003;65659;49.234;-2.094;2023-04-06T11:10:20;6;6;
73241;PMS5003;65659;49.234;-2.094;2023-04-06T11:12:43;6;6;
73241;PMS5003;65659;49.234;-2.094;2023-04-06T11:15:09;5;4;
73241;PMS5003;65659;49.234;-2.094;2023-04-06T11:17:34;6;5;
73241;PMS5003;65659;49.234;-2.094;2023-04-06T11:20:00;2;2;
73241;PMS5003;65659;49.234;-2.094;2023-04-06T11:22:26;3;3;
73241;PMS5003;65659;49.234;-2.094;2023-04-06T11:24:51;4;3;
73241;PMS5003;65659;49.234;-2.094;2023-04-06T11:27:16;7;6;
73241;PMS5003;65659;49.234;-2.094;2023-04-06T11:29:42;7;6;
73241;PMS5003;65659;49.234;-2.094;2023-04-06T11:32:08;5;5;
73241;PMS5003;65659;49.234;-2.094;2023-04-06T11:34:34;2;2;
73241;PMS5003;65659;49.234;-2.094;2023-04-06T11:37:00;5;5;
73241;PMS5003;65659;49.234;-2.094;2023-04-06T11:39:26;5;3;
73241;PMS5003;65659;49.234;-2.094;2023-04-06T11:41:51;4;4;
73241;PMS5003;65659;49.234;-2.094;2023-04-06T11:49:07;3;2;
73241;PMS5003;65659;49.234;-2.094;2023-04-06T11:51:35;5;4;
73241;PMS5003;65659;49.234;-2.094;2023-04-06T11:53:58;4;3;
73241;PMS5003;65659;49.234;-2.094;2023-04-06T11:56:25;4;3;
73241;PMS5003;65659;49.234;-2.094;2023-04-06T11:58:49;3;2;
73241;PMS5003;65659;49.234;-2.094;2023-04-06T12:01:15;4;4;
73241;PMS5003;65659;49.234;-2.094;2023-04-06T12:03:40;3;3;
73241;PMS5003;65659;49.234;-2.094;2023-04-06T12:06:06;1;1;
73241;PMS5003;65659;49.234;-2.094;2023-04-06T12:08:31;3;2;
73241;PMS5003;65659;49.234;-2.094;2023-04-06T12:10:57;5;4;
73241;PMS5003;65659;49.234;-2.094;2023-04-06T12:13:22;2;1;
73241;PMS5003;65659;49.234;-2.094;2023-04-06T12:15:51;4;3;
73241;PMS5003;65659;49.234;-2.094;2023-04-06T12:18:13;5;4;
73241;PMS5003;65659;49.234;-2.094;2023-04-06T12:20:38;5;5;
73241;PMS5003;65659;49.234;-2.094;2023-04-06T12:23:03;4;3;
73241;PMS5003;65659;49.234;-2.094;2023-04-06T12:25:29;4;3;
73241;PMS5003;65659;49.234;-2.094;2023-04-06T12:27:55;4;2;
73241;PMS5003;65659;49.234;-2.094;2023-04-06T12:30:21;4;3;
73241;PMS5003;65659;49.234;-2.094;2023-04-06T12:32:47;2;1;
73241;PMS5003;65659;49.234;-2.094;2023-04-06T12:35:12;2;1;
73241;PMS5003;65659;49.234;-2.094;2023-04-06T12:37:38;2;1;
73241;PMS5003;65659;49.234;-2.094;2023-04-06T12:40:03;0;0;
73241;PMS5003;65659;49.234;-2.094;2023-04-06T12:42:28;0;0;
73241;PMS5003;65659;49.234;-2.094;2023-04-06T12:44:53;2;1;
73241;PMS5003;65659;49.234;-2.094;2023-04-06T12:47:20;1;1;
73241;PMS5003;65659;49.234;-2.094;2023-04-06T12:49:44;2;2;
73241;PMS5003;65659;49.234;-2.094;2023-04-06T12:52:10;1;1;
73241;PMS5003;65659;49.234;-2.094;2023-04-06T12:54:36;5;4;
73241;PMS5003;65659;49.234;-2.094;2023-04-06T12:57:01;6;3;
73241;PMS5003;65659;49.234;-2.094;2023-04-06T12:59:27;2;1;
73241;PMS5003;65659;49.234;-2.094;2023-04-06T13:01:53;1;1;
73241;PMS5003;65659;49.234;-2.094;2023-04-06T13:04:18;1;1;
73241;PMS5003;65659;49.234;-2.094;2023-04-06T13:06:43;3;2;
73241;PMS5003;65659;49.234;-2.094;2023-04-06T13:09:09;2;2;
73241;PMS5003;65659;49.234;-2.094;2023-04-06T13:11:35;1;1;
73241;PMS5003;65659;49.234;-2.094;2023-04-06T13:14:00;2;2;
73241;PMS5003;65659;49.234;-2.094;2023-04-06T13:16:26;2;1;
73241;PMS5003;65659;49.234;-2.094;2023-04-06T13:18:52;4;3;
73241;PMS5003;65659;49.234;-2.094;2023-04-06T13:21:18;2;2;
73241;PMS5003;65659;49.234;-2.094;2023-04-06T13:23:44;2;1;
73241;PMS5003;65659;49.234;-2.094;2023-04-06T13:26:09;0;0;
73241;PMS5003;65659;49.234;-2.094;2023-04-06T13:28:35;0;0;
73241;PMS5003;65659;49.234;-2.094;2023-04-06T13:31:02;3;3;
73241;PMS5003;65659;49.234;-2.094;2023-04-06T13:33:27;4;3;
73241;PMS5003;65659;49.234;-2.094;2023-04-06T13:35:53;2;1;
73241;PMS5003;65659;49.234;-2.094;2023-04-06T13:38:18;2;2;
73241;PMS5003;65659;49.234;-2.094;2023-04-06T13:40:44;1;1;
73241;PMS5003;65659;49.234;-2.094;2023-04-06T13:43:10;1;0;
73241;PMS5003;65659;49.234;-2.094;2023-04-06T13:45:36;1;1;
73241;PMS5003;65659;49.234;-2.094;2023-04-06T13:48:02;2;2;
73241;PMS5003;65659;49.234;-2.094;2023-04-06T13:50:27;3;2;
73241;PMS5003;65659;49.234;-2.094;2023-04-06T13:52:53;1;1;
73241;PMS5003;65659;49.234;-2.094;2023-04-06T13:55:19;3;2;
73241;PMS5003;65659;49.234;-2.094;2023-04-06T13:57:45;2;1;
73241;PMS5003;65659;49.234;-2.094;2023-04-06T14:00:11;3;2;
73241;PMS5003;65659;49.234;-2.094;2023-04-06T14:02:36;1;0;
73241;PMS5003;65659;49.234;-2.094;2023-04-06T14:05:02;1;1;
73241;PMS5003;65659;49.234;-2.094;2023-04-06T14:07:27;1;1;
73241;PMS5003;65659;49.234;-2.094;2023-04-06T14:09:53;3;2;
73241;PMS5003;65659;49.234;-2.094;2023-04-06T14:12:19;3;3;
73241;PMS5003;65659;49.234;-2.094;2023-04-06T14:14:45;1;1;
73241;PMS5003;65659;49.234;-2.094;2023-04-06T14:17:11;1;1;
73241;PMS5003;65659;49.234;-2.094;2023-04-06T14:19:37;2;2;
73241;PMS5003;65659;49.234;-2.094;2023-04-06T14:22:02;2;2;
73241;PMS5003;65659;49.234;-2.094;2023-04-06T14:24:28;1;1;
73241;PMS5003;65659;49.234;-2.094;2023-04-06T14:29:20;3;3;
73241;PMS5003;65659;49.234;-2.094;2023-04-06T14:31:46;1;1;
73241;PMS5003;65659;49.234;-2.094;2023-04-06T14:34:11;2;1;
73241;PMS5003;65659;49.234;-2.094;2023-04-06T14:36:37;2;2;
73241;PMS5003;65659;49.234;-2.094;2023-04-06T14:39:03;2;1;
73241;PMS5003;65659;49.234;-2.094;2023-04-06T14:41:31;2;2;
73241;PMS5003;65659;49.234;-2.094;2023-04-06T14:43:54;3;2;
73241;PMS5003;65659;49.234;-2.094;2023-04-06T14:46:20;3;2;
73241;PMS5003;65659;49.234;-2.094;2023-04-06T14:48:46;2;2;
73241;PMS5003;65659;49.234;-2.094;2023-04-06T14:51:12;4;3;
73241;PMS5003;65659;49.234;-2.094;2023-04-06T14:53:37;2;2;
73241;PMS5003;65659;49.234;-2.094;2023-04-06T14:56:04;5;4;
73241;PMS5003;65659;49.234;-2.094;2023-04-06T14:58:28;2;2;
73241;PMS5003;65659;49.234;-2.094;2023-04-06T15:00:55;3;2;
73241;PMS5003;65659;49.234;-2.094;2023-04-06T15:03:20;2;2;
73241;PMS5003;65659;49.234;-2.094;2023-04-06T15:05:46;4;3;
73241;PMS5003;65659;49.234;-2.094;2023-04-06T15:08:12;1;1;
73241;PMS5003;65659;49.234;-2.094;2023-04-06T15:10:38;3;2;
73241;PMS5003;65659;49.234;-2.094;2023-04-06T15:13:04;6;5;
73241;PMS5003;65659;49.234;-2.094;2023-04-06T15:15:29;4;3;
73241;PMS5003;65659;49.234;-2.094;2023-04-06T15:17:55;4;3;
73241;PMS5003;65659;49.234;-2.094;2023-04-06T15:20:20;1;1;
73241;PMS5003;65659;49.234;-2.094;2023-04-06T15:22:46;2;1;
73241;PMS5003;65659;49.234;-2.094;2023-04-06T15:25:12;2;1;
73241;PMS5003;65659;49.234;-2.094;2023-04-06T15:27:38;3;3;
73241;PMS5003;65659;49.234;-2.094;2023-04-06T15:30:05;1;1;
73241;PMS5003;65659;49.234;-2.094;2023-04-06T15:32:29;2;2;
73241;PMS5003;65659;49.234;-2.094;2023-04-06T15:34:56;3;1;
73241;PMS5003;65659;49.234;-2.094;2023-04-06T15:37:21;3;3;
73241;PMS5003;65659;49.234;-2.094;2023-04-06T15:39:47;3;3;
73241;PMS5003;65659;49.234;-2.094;2023-04-06T15:42:13;2;2;
73241;PMS5003;65659;49.234;-2.094;2023-04-06T15:44:38;2;1;
73241;PMS5003;65659;49.234;-2.094;2023-04-06T15:47:04;1;1;
73241;PMS5003;65659;49.234;-2.094;2023-04-06T15:49:31;3;2;
73241;PMS5003;65659;49.234;-2.094;2023-04-06T15:51:56;3;1;
73241;PMS5003;65659;49.234;-2.094;2023-04-06T15:54:21;1;1;
73241;PMS5003;65659;49.234;-2.094;2023-04-06T15:56:48;1;1;
73241;PMS5003;65659;49.234;-2.094;2023-04-06T15:59:13;2;2;
73241;PMS5003;65659;49.234;-2.094;2023-04-06T16:01:39;1;1;
73241;PMS5003;65659;49.234;-2.094;2023-04-06T16:04:05;2;2;
73241;PMS5003;65659;49.234;-2.094;2023-04-06T16:06:31;2;2;
73241;PMS5003;65659;49.234;-2.094;2023-04-06T16:08:56;3;2;
73241;PMS5003;65659;49.234;-2.094;2023-04-06T16:11:22;4;3;
73241;PMS5003;65659;49.234;-2.094;2023-04-06T16:13:48;4;4;
73241;PMS5003;65659;49.234;-2.094;2023-04-06T16:16:13;2;2;
73241;PMS5003;65659;49.234;-2.094;2023-04-06T16:18:40;2;2;
73241;PMS5003;65659;49.234;-2.094;2023-04-06T16:21:05;6;3;
73241;PMS5003;65659;49.234;-2.094;2023-04-06T16:23:31;2;1;
73241;PMS5003;65659;49.234;-2.094;2023-04-06T16:25:56;4;3;